createdAt,value
2023-03-27T00:00:14.342Z,100928.34
2023-03-27T00:02:44.681Z,100925.84
2023-03-27T00:05:14.960Z,100935.84
2023-03-27T00:07:46.107Z,100939.59
2023-03-27T00:10:16.852Z,100938.53
2023-03-27T00:12:47.257Z,100942.91
2023-03-27T00:15:18.807Z,100950.81
2023-03-27T00:17:51.152Z,100954.97
2023-03-27T00:20:26.299Z,100965.59
2023-03-27T00:22:57.832Z,100960.38
2023-03-27T00:25:30.533Z,100976.16
2023-03-27T00:28:00.894Z,100978.69
2023-03-27T00:30:32.579Z,100987.19
2023-03-27T00:33:03.265Z,100996.34
2023-03-27T00:35:34.285Z,100991.16
2023-03-27T00:38:04.535Z,100992.38
2023-03-27T00:40:34.666Z,101000.72
2023-03-27T00:43:20.238Z,101006.72
2023-03-27T00:45:53.369Z,101011.09
2023-03-27T00:48:24.431Z,101016.56
2023-03-27T00:50:55.468Z,101015.28
2023-03-27T00:53:30.549Z,101018.63
2023-03-27T00:56:02.607Z,101020.69
2023-03-27T00:58:42.217Z,101018.41
2023-03-27T01:01:15.321Z,101015.28
2023-03-27T01:03:48.226Z,101021.94
2023-03-27T01:06:20.643Z,101026.91
2023-03-27T01:08:50.823Z,101032.75
2023-03-27T01:11:42.333Z,101031.50
2023-03-27T01:14:51.039Z,101038.16
2023-03-27T01:17:33.874Z,101039.59
2023-03-27T01:20:19.472Z,101048.13
2023-03-27T01:23:05.251Z,101045.22
2023-03-27T01:25:45.990Z,101054.78
2023-03-27T01:28:25.493Z,101055.38
2023-03-27T01:31:08.127Z,101056.00
2023-03-27T01:33:42.038Z,101057.28
2023-03-27T01:36:24.642Z,101053.50
2023-03-27T01:39:13.907Z,101050.59
2023-03-27T01:41:44.036Z,101058.06
2023-03-27T01:44:18.936Z,101053.47
2023-03-27T01:46:55.477Z,101063.94
2023-03-27T01:49:43.550Z,101058.31
2023-03-27T01:52:16.061Z,101065.16
2023-03-27T01:54:51.220Z,101062.25
2023-03-27T01:57:24.707Z,101059.56
2023-03-27T02:00:18.143Z,101064.31
2023-03-27T02:03:09.651Z,100988.84
2023-03-27T02:05:40.334Z,101070.13
2023-03-27T02:08:17.406Z,101067.84
2023-03-27T02:10:51.642Z,101066.59
2023-03-27T02:13:26.363Z,101064.47
2023-03-27T02:15:58.083Z,101065.09
2023-03-27T02:18:34.988Z,101056.56
2023-03-27T02:21:05.687Z,101052.59
2023-03-27T02:23:39.087Z,101062.16
2023-03-27T02:26:11.773Z,101061.72
2023-03-27T02:29:03.064Z,101053.41
2023-03-27T02:31:59.916Z,101052.16
2023-03-27T02:34:50.699Z,101057.13
2023-03-27T02:37:38.618Z,101052.34
2023-03-27T02:40:21.593Z,101053.56
2023-03-27T02:43:01.301Z,101048.78
2023-03-27T02:45:45.807Z,101049.38
2023-03-27T02:48:22.443Z,101048.97
2023-03-27T02:50:56.462Z,101050.41
2023-03-27T02:53:29.828Z,101050.84
2023-03-27T02:56:01.971Z,101044.16
2023-03-27T02:58:38.056Z,101040.19
2023-03-27T03:01:15.325Z,101035.34
2023-03-27T03:04:21.670Z,101037.63
2023-03-27T03:07:05.718Z,101020.34
2023-03-27T03:09:40.628Z,101028.84
2023-03-27T03:12:12.401Z,101027.59
2023-03-27T03:14:48.139Z,101033.63
2023-03-27T03:17:18.761Z,101021.53
2023-03-27T03:19:50.227Z,101020.28
2023-03-27T03:22:20.459Z,101025.25
2023-03-27T03:24:50.578Z,101017.72
2023-03-27T03:27:22.503Z,101023.75
2023-03-27T03:29:59.691Z,101022.28
2023-03-27T03:32:31.696Z,101021.84
2023-03-27T03:35:03.084Z,101020.56
2023-03-27T03:37:40.281Z,101019.31
2023-03-27T03:40:13.496Z,101025.31
2023-03-27T03:42:52.805Z,101016.75
2023-03-27T03:45:27.332Z,101004.03
2023-03-27T03:47:58.065Z,101011.53
2023-03-27T03:50:28.392Z,101006.72
2023-03-27T03:52:59.338Z,101005.44
2023-03-27T03:55:29.541Z,100991.66
2023-03-27T03:58:00.019Z,100997.69
2023-03-27T04:00:30.833Z,100994.53
2023-03-27T04:03:01.309Z,100991.63
2023-03-27T04:05:32.051Z,100985.94
2023-03-27T04:08:02.326Z,100977.38
2023-03-27T04:10:50.912Z,100968.22
2023-03-27T04:13:40.087Z,100964.44
2023-03-27T04:16:24.029Z,100966.94
2023-03-27T04:18:56.571Z,100962.34
2023-03-27T04:21:29.707Z,100964.81
2023-03-27T04:24:03.903Z,100961.88
2023-03-27T04:26:46.651Z,100952.69
2023-03-27T04:29:19.561Z,100944.34
2023-03-27T04:32:20.554Z,100948.50
2023-03-27T04:35:24.856Z,100931.16
2023-03-27T04:38:15.856Z,100933.41
2023-03-27T04:40:50.730Z,100935.66
2023-03-27T04:43:21.467Z,100921.91
2023-03-27T04:45:52.204Z,100927.94
2023-03-27T04:48:23.442Z,100923.69
2023-03-27T04:50:57.819Z,100919.09
2023-03-27T04:53:39.325Z,100915.72
2023-03-27T04:56:12.072Z,100912.78
2023-03-27T04:58:47.141Z,100912.38
2023-03-27T05:01:20.504Z,100909.41
2023-03-27T05:04:09.869Z,100896.44
2023-03-27T05:07:03.981Z,100902.25
2023-03-27T05:09:34.150Z,100900.13
2023-03-27T05:12:05.132Z,100891.78
2023-03-27T05:14:41.272Z,100884.22
2023-03-27T05:17:27.525Z,100877.50
2023-03-27T05:19:58.338Z,100859.13
2023-03-27T05:22:28.820Z,100857.84
2023-03-27T05:25:08.368Z,100854.66
2023-03-27T05:27:41.554Z,100842.75
2023-03-27T05:30:12.281Z,100845.25
2023-03-27T05:32:45.243Z,100837.69
2023-03-27T05:35:22.439Z,100835.56
2023-03-27T05:37:54.979Z,100822.59
2023-03-27T05:40:33.244Z,100825.91
2023-03-27T05:43:04.539Z,100811.28
2023-03-27T05:45:35.858Z,100808.09
2023-03-27T05:48:06.538Z,100796.19
2023-03-27T05:50:43.290Z,100794.06
2023-03-27T05:53:27.997Z,100791.94
2023-03-27T05:56:31.189Z,100797.72
2023-03-27T05:59:05.045Z,100785.56
2023-03-27T06:01:38.037Z,100776.38
2023-03-27T06:04:10.492Z,100774.06
2023-03-27T06:07:09.973Z,100690.16
2023-03-27T06:09:41.226Z,100767.47
2023-03-27T06:12:29.716Z,100767.00
2023-03-27T06:15:17.093Z,100761.91
2023-03-27T06:18:16.272Z,100762.25
2023-03-27T06:20:46.686Z,100754.72
2023-03-27T06:23:17.395Z,100762.16
2023-03-27T06:25:49.056Z,100743.75
2023-03-27T06:28:19.933Z,100743.28
2023-03-27T06:30:52.337Z,100735.47
2023-03-27T06:33:31.194Z,100737.72
2023-03-27T06:36:04.678Z,100728.84
2023-03-27T06:38:39.534Z,100722.13
2023-03-27T06:41:09.782Z,100728.72
2023-03-27T06:44:08.950Z,100716.56
2023-03-27T06:47:11.690Z,100713.16
2023-03-27T06:50:00.946Z,100715.38
2023-03-27T06:52:32.696Z,100713.84
2023-03-27T06:55:15.230Z,100707.91
2023-03-27T06:57:54.678Z,100704.50
2023-03-27T07:00:27.794Z,100703.19
2023-03-27T07:03:19.109Z,100703.28
2023-03-27T07:06:04.743Z,100693.56
2023-03-27T07:08:54.152Z,100696.41
2023-03-27T07:11:24.330Z,100689.41
2023-03-27T07:13:59.410Z,100684.06
2023-03-27T07:16:31.710Z,100682.53
2023-03-27T07:19:03.584Z,100679.91
2023-03-27T07:21:37.370Z,100674.84
2023-03-27T07:24:08.131Z,100673.03
2023-03-27T07:26:40.402Z,100681.28
2023-03-27T07:29:18.563Z,100664.47
2023-03-27T07:31:57.862Z,100667.28
2023-03-27T07:34:35.469Z,100671.75
2023-03-27T07:37:15.915Z,100663.69
2023-03-27T07:40:05.681Z,100662.69
2023-03-27T07:42:36.693Z,100666.56
2023-03-27T07:45:10.978Z,100659.56
2023-03-27T07:47:45.399Z,100667.84
2023-03-27T07:50:17.741Z,100662.50
2023-03-27T07:52:48.497Z,100664.22
2023-03-27T07:55:21.016Z,100649.03
2023-03-27T07:58:03.682Z,100650.19
2023-03-27T08:00:40.432Z,100638.28
2023-03-27T08:03:17.232Z,100642.16
2023-03-27T08:05:55.507Z,100641.19
2023-03-27T08:08:27.656Z,100643.41
2023-03-27T08:11:04.059Z,100640.72
2023-03-27T08:13:42.501Z,100632.06
2023-03-27T08:16:15.947Z,100637.59
2023-03-27T08:18:51.152Z,100637.66
2023-03-27T08:21:21.732Z,100641.56
2023-03-27T08:23:53.305Z,100645.19
2023-03-27T08:26:49.582Z,100652.06
2023-03-27T08:29:19.767Z,100638.78
2023-03-27T08:31:50.937Z,100651.63
2023-03-27T08:34:21.168Z,100650.63
2023-03-27T08:36:55.562Z,100642.75
2023-03-27T08:39:33.820Z,100633.84
2023-03-27T08:42:08.717Z,100642.06
2023-03-27T08:44:41.996Z,100637.25
2023-03-27T08:47:25.910Z,100640.28
2023-03-27T08:50:27.714Z,100637.91
2023-03-27T08:53:13.366Z,100645.06
2023-03-27T08:55:46.035Z,100645.13
2023-03-27T08:58:43.234Z,100637.81
2023-03-27T09:01:27.784Z,100647.94
2023-03-27T09:04:15.795Z,100637.06
2023-03-27T09:06:54.194Z,100642.59
2023-03-27T09:09:36.520Z,100642.66
2023-03-27T09:12:18.024Z,100634.53
2023-03-27T09:15:02.733Z,100644.94
2023-03-27T09:17:40.129Z,100639.25
2023-03-27T09:20:20.471Z,100638.47
2023-03-27T09:22:59.548Z,100647.78
2023-03-27T09:25:52.059Z,100651.66
2023-03-27T09:28:52.345Z,100657.16
2023-03-27T09:31:30.528Z,100650.31
2023-03-27T09:34:07.015Z,100644.91
2023-03-27T09:36:40.329Z,100656.16
2023-03-27T09:39:16.885Z,100657.53
2023-03-27T09:42:12.517Z,100658.38
2023-03-27T09:44:43.937Z,100648.59
2023-03-27T09:47:14.163Z,100654.84
2023-03-27T09:50:05.578Z,100653.50
2023-03-27T09:52:56.693Z,100660.63
2023-03-27T09:55:52.062Z,100672.38
2023-03-27T09:58:33.713Z,100682.78
2023-03-27T10:01:10.165Z,100676.19
2023-03-27T10:03:42.257Z,100675.41
2023-03-27T10:06:16.004Z,100661.75
2023-03-27T10:09:14.022Z,100665.03
2023-03-27T10:11:45.127Z,100665.03
2023-03-27T10:14:27.652Z,100665.88
2023-03-27T10:16:58.982Z,100661.75
2023-03-27T10:19:31.369Z,100663.91
2023-03-27T10:22:08.025Z,100670.22
2023-03-27T10:24:47.580Z,100660.13
2023-03-27T10:27:29.923Z,100661.19
2023-03-27T10:30:36.181Z,100666.47
2023-03-27T10:33:33.696Z,100672.84
2023-03-27T10:36:21.822Z,100673.63
2023-03-27T10:38:57.986Z,100671.28
2023-03-27T10:41:41.325Z,100674.38
2023-03-27T10:44:19.199Z,100674.75
2023-03-27T10:46:56.530Z,100681.19
2023-03-27T10:49:38.425Z,100685.66
2023-03-27T10:52:17.244Z,100681.69
2023-03-27T10:55:22.762Z,100679.22
2023-03-27T10:57:57.571Z,100695.97
2023-03-27T11:00:34.225Z,100692.31
2023-03-27T11:03:11.107Z,100702.63
2023-03-27T11:05:44.745Z,100699.69
2023-03-27T11:08:30.369Z,100703.56
2023-03-27T11:11:09.291Z,100703.97
2023-03-27T11:13:48.044Z,100717.38
2023-03-27T11:16:49.498Z,100722.13
2023-03-27T11:19:46.462Z,100734.03
2023-03-27T11:22:43.658Z,100725.75
2023-03-27T11:25:24.418Z,100734.81
2023-03-27T11:28:02.863Z,100734.91
2023-03-27T11:30:34.624Z,100743.66
2023-03-27T11:33:18.582Z,100743.66
2023-03-27T11:35:55.371Z,100732.47
2023-03-27T11:38:48.090Z,100739.03
2023-03-27T11:41:18.348Z,100736.28
2023-03-27T11:43:49.118Z,100736.53
2023-03-27T11:47:03.553Z,100744.72
2023-03-27T11:49:43.357Z,100753.97
2023-03-27T11:52:14.084Z,100749.59
2023-03-27T11:54:50.059Z,100754.47
2023-03-27T11:57:29.309Z,100748.34
2023-03-27T12:00:27.432Z,100762.72
2023-03-27T12:03:21.637Z,100768.00
2023-03-27T12:05:53.967Z,100783.09
2023-03-27T12:08:34.332Z,100780.03
2023-03-27T12:11:06.371Z,100783.50
2023-03-27T12:14:01.518Z,100780.19
2023-03-27T12:16:45.776Z,100783.00
2023-03-27T12:22:22.774Z,100784.38
2023-03-27T12:24:59.690Z,100787.94
2023-03-27T12:27:56.535Z,100784.16
2023-03-27T12:30:46.852Z,100792.91
2023-03-27T12:33:40.957Z,100795.03
2023-03-27T12:36:15.079Z,100801.78
2023-03-27T12:38:45.487Z,100803.09
2023-03-27T12:41:44.905Z,100800.59
2023-03-27T12:44:33.059Z,100800.31
2023-03-27T12:47:18.006Z,100793.72
2023-03-27T12:49:58.087Z,100803.25
2023-03-27T12:52:34.360Z,100801.28
2023-03-27T12:55:20.360Z,100807.22
2023-03-27T12:58:15.424Z,100806.38
2023-03-27T13:01:10.581Z,100798.88
2023-03-27T13:03:49.147Z,100800.47
2023-03-27T13:06:38.568Z,100801.13
2023-03-27T13:09:10.404Z,100803.63
2023-03-27T13:12:04.358Z,100803.28
2023-03-27T13:14:36.324Z,100808.53
2023-03-27T13:17:12.653Z,100818.91
2023-03-27T13:19:52.977Z,100818.91
2023-03-27T13:22:44.717Z,100813.59
2023-03-27T13:25:31.375Z,100809.44
2023-03-27T13:28:20.220Z,100825.75
2023-03-27T13:30:59.397Z,100828.72
2023-03-27T13:34:24.082Z,100834.84
2023-03-27T13:37:06.231Z,100849.88
2023-03-27T13:40:00.631Z,100848.06
2023-03-27T13:42:49.536Z,100843.91
2023-03-27T13:48:55.441Z,100847.72
2023-03-27T13:51:37.633Z,100857.38
2023-03-27T13:54:32.626Z,100856.13
2023-03-27T13:57:33.062Z,100860.34
2023-03-27T14:00:23.708Z,100866.16
2023-03-27T14:03:18.604Z,100874.50
2023-03-27T14:06:12.222Z,100870.97
2023-03-27T14:09:08.390Z,100874.28
2023-03-27T14:12:26.162Z,100866.97
2023-03-27T14:15:09.887Z,100868.28
2023-03-27T14:17:58.328Z,100885.78
2023-03-27T14:20:58.418Z,100890.34
2023-03-27T14:23:31.618Z,100897.47
2023-03-27T14:26:21.049Z,100902.50
2023-03-27T14:28:56.553Z,100908.31
2023-03-27T14:31:39.446Z,100919.16
2023-03-27T14:34:43.534Z,100920.66
2023-03-27T14:37:40.581Z,100928.81
2023-03-27T14:40:46.091Z,100921.69
2023-03-27T14:43:23.551Z,100920.25
2023-03-27T14:46:02.070Z,100926.72
2023-03-27T14:48:41.878Z,100931.31
2023-03-27T14:51:19.130Z,100934.69
2023-03-27T14:53:55.508Z,100940.09
2023-03-27T14:56:45.111Z,100942.19
2023-03-27T14:59:47.096Z,100947.22
2023-03-27T15:02:25.934Z,100945.13
2023-03-27T15:05:06.994Z,100945.56
2023-03-27T15:07:38.954Z,100956.22
2023-03-27T15:10:28.737Z,100954.38
2023-03-27T15:13:17.680Z,100956.88
2023-03-27T15:15:55.600Z,100966.94
2023-03-27T15:18:29.737Z,100976.94
2023-03-27T15:21:05.908Z,100967.34
2023-03-27T15:23:38.280Z,100960.66
2023-03-27T15:26:14.270Z,100974.19
2023-03-27T15:28:50.087Z,100976.69
2023-03-27T15:31:23.198Z,100974.63
2023-03-27T15:33:54.384Z,100977.75
2023-03-27T15:36:36.163Z,100983.16
2023-03-27T15:39:09.983Z,100991.91
2023-03-27T15:41:43.690Z,100987.75
2023-03-27T15:44:19.375Z,100989.44
2023-03-27T15:46:52.241Z,101002.34
2023-03-27T15:49:42.904Z,100996.53
2023-03-27T15:52:33.346Z,100991.53
2023-03-27T15:55:04.998Z,100994.88
2023-03-27T15:57:36.784Z,100989.50
2023-03-27T16:00:11.617Z,100986.34
2023-03-27T16:02:45.425Z,100986.19
2023-03-27T16:05:21.983Z,100981.59
2023-03-27T16:07:56.532Z,100971.63
2023-03-27T16:10:34.211Z,100974.94
2023-03-27T16:13:07.906Z,100973.47
2023-03-27T16:15:43.025Z,100967.88
2023-03-27T16:18:17.629Z,100966.59
2023-03-27T16:20:48.077Z,100972.66
2023-03-27T16:23:19.271Z,100974.91
2023-03-27T16:25:51.253Z,100979.50
2023-03-27T16:28:23.408Z,100978.25
2023-03-27T16:30:54.156Z,100974.09
2023-03-27T16:33:24.465Z,100977.22
2023-03-27T16:35:58.579Z,100975.34
2023-03-27T16:38:29.458Z,100971.59
2023-03-27T16:41:03.246Z,100964.53
2023-03-27T16:43:36.988Z,100967.84
2023-03-27T16:46:08.696Z,100961.63
2023-03-27T16:48:38.849Z,100961.22
2023-03-27T16:51:08.968Z,100961.63
2023-03-27T16:53:39.111Z,100964.97
2023-03-27T16:56:09.368Z,100965.13
2023-03-27T16:58:40.089Z,100955.34
2023-03-27T17:01:10.860Z,100949.94
2023-03-27T17:03:41.406Z,100950.56
2023-03-27T17:06:12.941Z,100954.09
2023-03-27T17:08:43.526Z,100939.13
2023-03-27T17:11:14.994Z,100939.56
2023-03-27T17:13:45.822Z,100931.03
2023-03-27T17:16:16.736Z,100926.25
2023-03-27T17:18:47.769Z,100922.09
2023-03-27T17:21:17.899Z,100932.88
2023-03-27T17:23:50.081Z,100929.53
2023-03-27T17:26:35.732Z,100945.09
2023-03-27T17:29:07.546Z,100928.72
2023-03-27T17:31:37.810Z,100929.53
2023-03-27T17:34:09.299Z,100923.31
2023-03-27T17:36:45.313Z,100919.56
2023-03-27T17:39:22.899Z,100924.13
2023-03-27T17:41:53.485Z,100912.72
2023-03-27T17:44:23.536Z,100902.34
2023-03-27T17:46:54.819Z,100903.34
2023-03-27T17:49:24.979Z,100885.91
2023-03-27T17:51:55.163Z,100885.09
2023-03-27T17:54:25.691Z,100880.94
2023-03-27T17:56:55.775Z,100879.66
2023-03-27T17:59:27.128Z,100880.06
2023-03-27T18:01:57.409Z,100869.66
2023-03-27T18:04:27.837Z,100871.31
2023-03-27T18:06:57.837Z,100859.91
2023-03-27T18:09:28.056Z,100854.69
2023-03-27T18:11:58.135Z,100853.88
2023-03-27T18:14:29.005Z,100848.91
2023-03-27T18:16:59.155Z,100853.66
2023-03-27T18:19:29.828Z,100848.84
2023-03-27T18:22:00.089Z,100849.91
2023-03-27T18:24:30.504Z,100852.19
2023-03-27T18:27:00.717Z,100849.50
2023-03-27T18:29:32.378Z,100846.78
2023-03-27T18:32:03.043Z,100836.59
2023-03-27T18:34:33.300Z,100826.03
2023-03-27T18:37:03.383Z,100823.94
2023-03-27T18:39:36.605Z,100818.97
2023-03-27T18:42:06.805Z,100817.31
2023-03-27T18:44:39.414Z,100810.63
2023-03-27T18:47:11.021Z,100811.03
2023-03-27T18:49:42.570Z,100807.34
2023-03-27T18:52:14.080Z,100815.84
2023-03-27T18:54:44.937Z,100809.41
2023-03-27T18:57:20.230Z,100811.47
2023-03-27T18:59:51.125Z,100802.72
2023-03-27T19:02:21.626Z,100796.09
2023-03-27T19:04:52.511Z,100767.44
2023-03-27T19:07:22.659Z,100797.75
2023-03-27T19:09:52.868Z,100793.59
2023-03-27T19:12:23.602Z,100797.16
2023-03-27T19:14:53.829Z,100791.13
2023-03-27T19:17:56.718Z,100787.78
2023-03-27T19:20:52.842Z,100784.03
2023-03-27T19:23:55.336Z,100776.78
2023-03-27T19:26:35.984Z,100775.94
2023-03-27T19:29:07.076Z,100771.38
2023-03-27T19:31:37.329Z,100774.47
2023-03-27T19:34:07.833Z,100774.06
2023-03-27T19:36:38.717Z,100771.56
2023-03-27T19:39:09.647Z,100765.75
2023-03-27T19:41:39.763Z,100766.16
2023-03-27T19:44:09.985Z,100763.28
2023-03-27T19:46:40.104Z,100767.84
2023-03-27T19:49:10.472Z,100763.66
2023-03-27T19:51:50.317Z,100762.59
2023-03-27T19:54:20.702Z,100765.06
2023-03-27T19:56:50.766Z,100770.69
2023-03-27T19:59:29.833Z,100777.94
2023-03-27T20:02:00.951Z,100774.41
2023-03-27T20:04:31.321Z,100772.75
2023-03-27T20:07:03.479Z,100774.19
2023-03-27T20:09:33.748Z,100776.88
2023-03-27T20:12:04.399Z,100777.06
2023-03-27T20:14:34.904Z,100777.72
2023-03-27T20:17:07.986Z,100776.25
2023-03-27T20:19:47.593Z,100773.97
2023-03-27T20:22:22.217Z,100776.00
2023-03-27T20:24:52.284Z,100765.25
2023-03-27T20:27:22.290Z,100768.97
2023-03-27T20:29:52.502Z,100772.28
2023-03-27T20:32:22.770Z,100768.97
2023-03-27T20:34:52.857Z,100775.19
2023-03-27T20:37:23.292Z,100774.38
2023-03-27T20:40:08.595Z,100777.66
2023-03-27T20:42:48.660Z,100771.84
2023-03-27T20:45:20.888Z,100777.63
2023-03-27T20:47:51.120Z,100780.50
2023-03-27T20:50:25.069Z,100782.56
2023-03-27T20:52:59.465Z,100787.13
2023-03-27T20:55:34.617Z,100783.38
2023-03-27T20:58:09.564Z,100792.50
2023-03-27T21:00:39.850Z,100794.56
2023-03-27T21:03:10.163Z,100803.88
2023-03-27T21:05:42.677Z,100807.44
2023-03-27T21:08:12.925Z,100812.34
2023-03-27T21:10:43.875Z,100818.59
2023-03-27T21:13:14.082Z,100821.47
2023-03-27T21:15:44.631Z,100830.59
2023-03-27T21:18:14.815Z,100823.53
2023-03-27T21:20:45.073Z,100830.59
2023-03-27T21:23:15.709Z,100838.84
2023-03-27T21:25:47.003Z,100834.50
2023-03-27T21:28:18.135Z,100836.81
2023-03-27T21:30:48.995Z,100831.19
2023-03-27T21:33:20.137Z,100833.22
2023-03-27T21:35:50.928Z,100850.44
2023-03-27T21:38:21.603Z,100848.56
2023-03-27T21:40:51.755Z,100841.69
2023-03-27T21:43:22.747Z,100843.00
2023-03-27T21:45:53.346Z,100841.31
2023-03-27T21:48:23.922Z,100839.25
2023-03-27T21:50:53.970Z,100846.28
2023-03-27T21:53:24.082Z,100848.81
2023-03-27T21:55:54.721Z,100846.28
2023-03-27T21:58:25.696Z,100850.03
2023-03-27T22:00:59.235Z,100846.69
2023-03-27T22:03:29.963Z,100850.44
2023-03-27T22:06:12.529Z,100852.91
2023-03-27T22:08:44.533Z,100846.69
2023-03-27T22:11:14.589Z,100863.91
2023-03-27T22:13:44.772Z,100858.91
2023-03-27T22:16:16.329Z,100863.25
2023-03-27T22:18:46.925Z,100873.16
2023-03-27T22:21:18.635Z,100875.84
2023-03-27T22:23:52.101Z,100878.53
2023-03-27T22:26:23.778Z,100878.53
2023-03-27T22:28:54.079Z,100882.59
2023-03-27T22:31:25.250Z,100885.94
2023-03-27T22:33:55.449Z,100895.03
2023-03-27T22:36:25.913Z,100898.13
2023-03-27T22:38:56.434Z,100901.44
2023-03-27T22:41:26.745Z,100907.88
2023-03-27T22:43:57.408Z,100913.25
2023-03-27T22:46:27.869Z,100929.41
2023-03-27T22:48:59.286Z,100927.72
2023-03-27T22:51:30.802Z,100931.28
2023-03-27T22:54:00.877Z,100938.09
2023-03-27T22:56:30.944Z,100936.47
2023-03-27T22:59:01.127Z,100940.81
2023-03-27T23:01:31.847Z,100948.88
2023-03-27T23:04:02.306Z,100949.44
2023-03-27T23:06:32.804Z,100964.06
2023-03-27T23:09:02.897Z,100961.44
2023-03-27T23:11:33.002Z,100965.28
2023-03-27T23:14:03.073Z,100970.13
2023-03-27T23:16:33.212Z,100972.31
2023-03-27T23:19:03.584Z,100985.22
2023-03-27T23:21:33.829Z,100996.88
2023-03-27T23:24:03.943Z,100993.19
2023-03-27T23:26:33.985Z,101006.72
2023-03-27T23:29:04.361Z,101008.41
2023-03-27T23:31:35.121Z,101014.47
2023-03-27T23:34:05.346Z,101019.09
2023-03-27T23:36:35.966Z,101021.66
2023-03-27T23:39:06.359Z,101020.84
2023-03-27T23:41:36.484Z,101028.78
2023-03-27T23:44:06.919Z,101026.31
2023-03-27T23:46:37.028Z,101026.09
2023-03-27T23:49:07.382Z,101028.84
2023-03-27T23:51:37.524Z,101029.31
2023-03-27T23:54:08.172Z,101033.25
2023-03-27T23:56:38.774Z,101029.06
2023-03-27T23:59:08.878Z,101038.81
